Time;durP1;ratioP1;P1;durP2;ratioP2;P2;SDS_P1;SDS_P2;PMS_P1;PMS_P2;Temp;Humidity;BMP_temperature;BMP_pressure;BME280_temperature;BME280_humidity;BME280_pressure;Samples;Min_cycle;Max_cycle;Signal;HPM_P1;HPM_P2
2023/12/13 00:00:23;;;;;;;8.95;5.97;;;;;;;17.19;53.24;99676.84;5025804;28;20138;-35
2023/12/13 00:02:50;;;;;;;11.07;5.85;;;;;;;17.18;52.89;99677.88;5029955;28;20053;-35
2023/12/13 00:05:17;;;;;;;11.25;6.60;;;;;;;17.17;52.95;99675.38;5024082;28;20095;-36
2023/12/13 00:07:43;;;;;;;8.18;5.68;;;;;;;17.16;53.45;99679.88;5026586;28;20054;-35
2023/12/13 00:10:10;;;;;;;8.43;5.57;;;;;;;17.16;53.41;99676.38;5028633;28;20477;-35
2023/12/13 00:12:36;;;;;;;8.13;5.85;;;;;;;17.15;52.98;99682.75;5021434;28;20050;-36
2023/12/13 00:15:03;;;;;;;8.50;6.03;;;;;;;17.13;52.94;99671.38;5028613;28;20104;-35
2023/12/13 00:17:30;;;;;;;8.95;5.95;;;;;;;17.13;52.80;99671.38;5027523;28;20080;-35
2023/12/13 00:19:57;;;;;;;8.60;6.03;;;;;;;17.13;53.09;99663.34;5030886;28;20053;-35
2023/12/13 00:22:24;;;;;;;7.18;5.13;;;;;;;17.11;52.87;99663.50;5034134;28;20277;-35
2023/12/13 00:24:50;;;;;;;7.68;5.15;;;;;;;17.11;53.56;99660.00;5025003;28;20433;-37
2023/12/13 00:27:17;;;;;;;8.68;5.57;;;;;;;17.12;52.79;99659.00;5025519;28;20197;-34
2023/12/13 00:29:43;;;;;;;8.80;5.57;;;;;;;17.11;53.29;99655.50;5027366;28;20045;-35
2023/12/13 00:32:11;;;;;;;9.90;5.82;;;;;;;17.10;52.82;99655.69;5029146;28;20041;-37
2023/12/13 00:34:37;;;;;;;7.57;5.50;;;;;;;17.09;53.46;99652.16;5029640;28;20381;-35
2023/12/13 00:37:04;;;;;;;7.90;5.63;;;;;;;17.09;52.77;99659.38;5029189;28;20073;-36
2023/12/13 00:39:31;;;;;;;7.35;5.28;;;;;;;17.09;52.79;99649.50;5028739;28;20333;-34
2023/12/13 00:41:58;;;;;;;7.15;5.05;;;;;;;17.08;53.13;99658.50;5035089;28;20049;-35
2023/12/13 00:44:25;;;;;;;5.82;4.53;;;;;;;17.09;53.15;99657.53;5031031;28;20053;-36
2023/12/13 00:46:51;;;;;;;8.13;5.63;;;;;;;17.08;52.91;99657.69;5025752;28;20046;-35
2023/12/13 00:49:20;;;;;;;8.07;5.22;;;;;;;17.07;52.78;99653.34;5033731;28;20045;-38
2023/12/13 00:51:46;;;;;;;7.35;5.22;;;;;;;17.07;53.59;99656.03;5031248;28;20046;-35
2023/12/13 00:54:13;;;;;;;7.15;5.03;;;;;;;17.04;53.06;99654.50;5026605;28;20069;-35
2023/12/13 00:56:40;;;;;;;7.45;4.72;;;;;;;17.05;53.10;99652.69;5034001;28;20469;-36
2023/12/13 00:59:06;;;;;;;6.63;4.65;;;;;;;17.06;52.75;99651.69;5032346;28;20050;-36
2023/12/13 01:01:33;;;;;;;7.35;4.95;;;;;;;17.04;52.98;99651.84;5030865;28;20057;-36
2023/12/13 01:03:59;;;;;;;5.20;4.30;;;;;;;17.03;52.90;99650.19;5028308;28;20349;-35
2023/12/13 01:06:26;;;;;;;6.63;4.50;;;;;;;17.02;52.57;99653.88;5031951;28;20049;-36
2023/12/13 01:08:53;;;;;;;6.35;4.80;;;;;;;17.01;53.33;99653.03;5026621;28;20357;-34
2023/12/13 01:11:20;;;;;;;6.78;4.60;;;;;;;17.00;53.08;99646.03;5030836;28;20041;-35
2023/12/13 01:13:46;;;;;;;6.40;4.22;;;;;;;17.00;53.03;99651.38;5028541;28;20085;-35
2023/12/13 01:16:13;;;;;;;6.35;4.47;;;;;;;17.01;53.12;99654.91;5035243;28;20045;-35
2023/12/13 01:18:40;;;;;;;5.85;4.05;;;;;;;17.00;52.68;99663.91;5035828;28;20053;-36
2023/12/13 01:21:06;;;;;;;6.82;4.85;;;;;;;16.99;52.70;99654.22;5034203;28;20132;-35
2023/12/13 01:23:33;;;;;;;5.90;4.07;;;;;;;16.98;53.29;99658.75;5035795;28;20433;-36
2023/12/13 01:26:00;;;;;;;7.68;4.40;;;;;;;16.99;52.98;99656.91;5030781;28;20401;-34
2023/12/13 01:28:26;;;;;;;7.07;4.68;;;;;;;16.98;53.48;99652.56;5042546;28;20049;-35
2023/12/13 01:30:53;;;;;;;6.40;4.63;;;;;;;16.98;52.66;99655.25;5030414;28;20042;-35
2023/12/13 01:33:20;;;;;;;5.90;3.92;;;;;;;16.97;52.98;99664.28;5027598;28;20041;-36
2023/12/13 01:35:46;;;;;;;6.03;3.80;;;;;;;16.97;53.37;99661.59;5030423;28;20045;-35
2023/12/13 01:38:13;;;;;;;5.15;3.85;;;;;;;16.97;53.26;99666.97;5033364;28;20107;-35
2023/12/13 01:40:49;;;;;;;5.75;3.58;;;;;;;16.94;53.65;99662.78;5031957;28;20107;-36
2023/12/13 01:43:35;;;;;;;5.95;3.88;;;;;;;16.96;53.18;99671.44;5031597;28;20061;-35
2023/12/13 01:46:02;;;;;;;5.20;3.83;;;;;;;16.95;53.48;99677.00;5031821;28;20046;-35
2023/12/13 01:48:29;;;;;;;5.80;3.90;;;;;;;16.94;52.79;99672.66;5025553;28;20081;-35
2023/12/13 01:50:56;;;;;;;5.10;3.70;;;;;;;16.93;53.43;99677.19;5035362;28;20168;-35
2023/12/13 01:53:26;;;;;;;6.75;4.20;;;;;;;16.93;52.87;99668.31;5030108;28;20081;-35
2023/12/13 01:55:54;;;;;;;5.43;3.53;;;;;;;16.93;52.86;99679.03;5033374;28;20542;-36
2023/12/13 01:58:22;;;;;;;5.28;3.67;;;;;;;16.92;52.75;99674.66;5032331;28;20164;-34
2023/12/13 02:00:50;;;;;;;5.47;3.78;;;;;;;16.93;52.72;99681.69;5031979;28;20052;-35
2023/12/13 02:03:19;;;;;;;4.75;3.55;;;;;;;16.91;52.84;99673.84;5025025;28;20136;-35
2023/12/13 02:05:45;;;;;;;4.53;3.38;;;;;;;16.91;53.40;99678.34;5033530;28;20045;-35
2023/12/13 02:08:12;;;;;;;6.82;3.88;;;;;;;16.90;53.29;99682.03;5030547;28;20471;-36
2023/12/13 02:10:39;;;;;;;6.03;3.97;;;;;;;16.90;53.16;99685.56;5031265;28;20096;-35
2023/12/13 02:13:06;;;;;;;5.38;3.63;;;;;;;16.90;52.42;99676.69;5034069;28;20092;-35
2023/12/13 02:15:35;;;;;;;5.13;3.33;;;;;;;16.89;53.06;99678.53;5022594;28;20089;-35
2023/12/13 02:18:02;;;;;;;4.95;3.42;;;;;;;16.89;53.29;99681.22;5028912;28;20338;-35
2023/12/13 02:20:29;;;;;;;4.10;2.85;;;;;;;16.89;52.84;99677.72;5032484;28;20080;-34
2023/12/13 02:22:56;;;;;;;5.13;3.75;;;;;;;16.88;52.58;99679.53;5035477;28;20067;-36
2023/12/13 02:25:35;;;;;;;4.03;2.70;;;;;;;16.87;52.91;99682.38;5032667;28;20061;-35
2023/12/13 02:28:02;;;;;;;4.32;2.92;;;;;;;16.87;53.28;99672.50;5028941;28;20045;-35
2023/12/13 02:30:29;;;;;;;5.30;3.35;;;;;;;16.87;53.09;99669.84;5032371;28;20076;-35
2023/12/13 02:32:56;;;;;;;3.97;3.10;;;;;;;16.87;53.20;99671.69;5029924;28;20148;-35
2023/12/13 02:35:23;;;;;;;5.28;3.25;;;;;;;16.87;53.22;99671.69;5031765;28;20435;-36
2023/12/13 02:37:50;;;;;;;4.32;3.10;;;;;;;16.85;53.31;99669.19;5027225;28;20125;-35
2023/12/13 02:40:17;;;;;;;4.75;3.20;;;;;;;16.86;52.38;99672.69;5033291;28;20056;-36
2023/12/13 02:42:45;;;;;;;4.55;2.95;;;;;;;16.86;52.93;99667.34;5026632;28;20171;-35
2023/12/13 02:45:13;;;;;;;4.30;2.92;;;;;;;16.84;52.86;99661.31;5026315;28;20052;-35
2023/12/13 02:47:43;;;;;;;5.35;2.70;;;;;;;16.85;53.03;99668.38;5028522;28;20060;-35
2023/12/13 02:50:11;;;;;;;5.55;3.28;;;;;;;16.85;52.93;99668.38;5030667;28;20072;-35
2023/12/13 02:52:39;;;;;;;3.88;2.90;;;;;;;16.84;52.75;99661.31;5029803;28;20177;-36
2023/12/13 02:55:06;;;;;;;4.20;2.65;;;;;;;16.85;53.00;99663.00;5034164;28;20052;-35
2023/12/13 02:57:33;;;;;;;5.50;2.85;;;;;;;16.85;52.26;99663.00;5034272;28;20057;-34
2023/12/13 03:00:00;;;;;;;5.10;3.00;;;;;;;16.84;52.50;99666.66;5031671;28;20436;-35
2023/12/13 03:02:27;;;;;;;5.55;2.60;;;;;;;16.84;53.09;99666.66;5031834;28;20127;-35
2023/12/13 03:04:53;;;;;;;4.45;3.17;;;;;;;16.84;52.58;99661.31;5039360;28;20124;-37
2023/12/13 03:07:21;;;;;;;3.20;2.80;;;;;;;16.84;52.87;99661.31;5032771;28;20085;-35
2023/12/13 03:09:49;;;;;;;4.10;2.70;;;;;;;16.83;52.95;99665.00;5025846;28;20052;-37
2023/12/13 03:12:15;;;;;;;3.13;2.53;;;;;;;16.83;53.32;99660.50;5030647;28;20061;-36
2023/12/13 03:14:42;;;;;;;4.10;2.60;;;;;;;16.82;52.67;99660.69;5030857;28;20137;-35
2023/12/13 03:17:08;;;;;;;4.05;2.42;;;;;;;16.82;53.23;99658.81;5029106;28;20487;-36
2023/12/13 03:19:35;;;;;;;3.90;2.58;;;;;;;16.82;52.63;99658.81;5028940;28;20381;-36
2023/12/13 03:22:02;;;;;;;2.97;2.55;;;;;;;16.83;52.60;99654.31;5032293;28;20049;-35
2023/12/13 03:24:29;;;;;;;4.90;2.80;;;;;;;16.81;53.05;99659.84;5025353;28;20050;-35
2023/12/13 03:26:55;;;;;;;3.35;2.53;;;;;;;16.82;52.83;99652.66;5030463;28;20046;-35
2023/12/13 03:29:23;;;;;;;3.90;2.80;;;;;;;16.81;53.43;99651.00;5032796;28;20836;-35
2023/12/13 03:31:49;;;;;;;4.32;2.60;;;;;;;16.80;52.73;99644.78;5028821;28;20444;-35
2023/12/13 03:34:16;;;;;;;3.58;2.30;;;;;;;16.80;53.27;99646.63;5030193;28;20049;-35
2023/12/13 03:36:43;;;;;;;3.60;2.80;;;;;;;16.80;52.84;99643.94;5026096;28;20153;-35
2023/12/13 03:39:10;;;;;;;3.90;2.40;;;;;;;16.79;53.16;99643.13;5029874;28;20378;-34
2023/12/13 03:41:36;;;;;;;2.95;2.40;;;;;;;16.80;53.47;99638.59;5027197;28;20315;-35
2023/12/13 03:44:03;;;;;;;3.58;2.47;;;;;;;16.80;52.93;99639.41;5028057;28;20041;-35
2023/12/13 03:46:29;;;;;;;3.20;2.30;;;;;;;16.80;52.79;99643.94;5027606;28;20077;-36
2023/12/13 03:48:56;;;;;;;4.30;2.47;;;;;;;16.77;52.60;99635.28;5031746;28;20060;-35
2023/12/13 03:51:23;;;;;;;3.45;2.60;;;;;;;16.77;52.50;99640.63;5032506;28;20052;-35
2023/12/13 03:53:49;;;;;;;3.33;2.60;;;;;;;16.78;53.04;99641.47;5031454;28;20049;-34
2023/12/13 03:56:16;;;;;;;2.85;2.17;;;;;;;16.77;52.96;99642.47;5032370;28;20506;-35
2023/12/13 03:58:43;;;;;;;3.25;2.35;;;;;;;16.75;53.07;99637.28;5030299;28;20118;-36
2023/12/13 04:01:11;;;;;;;4.28;2.60;;;;;;;16.76;52.73;99638.09;5031851;28;20073;-35
2023/12/13 04:03:37;;;;;;;4.85;2.30;;;;;;;16.74;53.29;99640.97;5029262;28;20081;-36
2023/12/13 04:06:04;;;;;;;4.07;2.33;;;;;;;16.74;52.98;99645.50;5031772;28;20049;-36
2023/12/13 04:08:31;;;;;;;2.88;1.98;;;;;;;16.72;52.80;99629.59;5029641;28;20103;-36
2023/12/13 04:10:57;;;;;;;3.00;2.40;;;;;;;16.74;53.05;99637.47;5041894;28;20111;-36
2023/12/13 04:13:24;;;;;;;2.70;2.00;;;;;;;16.73;53.01;99641.97;5027889;28;20111;-35
2023/12/13 04:15:50;;;;;;;3.10;2.20;;;;;;;16.73;53.01;99635.81;5028923;28;20052;-36
2023/12/13 04:18:17;;;;;;;2.75;2.13;;;;;;;16.71;52.30;99630.56;5027430;28;20054;-36
2023/12/13 04:20:44;;;;;;;4.15;2.30;;;;;;;16.72;53.19;99636.75;5030217;28;20441;-35
2023/12/13 04:23:10;;;;;;;4.47;2.10;;;;;;;16.71;52.72;99641.28;5027410;28;20437;-35
2023/12/13 04:25:38;;;;;;;3.25;2.30;;;;;;;16.71;53.28;99632.41;5032626;28;20429;-35
2023/12/13 04:28:04;;;;;;;2.45;1.90;;;;;;;16.71;53.07;99629.75;5025974;28;20051;-36
2023/12/13 04:30:31;;;;;;;5.05;2.45;;;;;;;16.70;53.58;99630.75;5025641;28;20075;-37
2023/12/13 04:32:58;;;;;;;4.10;2.55;;;;;;;16.68;52.83;99630.94;5029308;28;20367;-35
2023/12/13 04:35:25;;;;;;;3.55;2.30;;;;;;;16.71;53.21;99637.78;5030461;28;20103;-35
2023/12/13 04:37:51;;;;;;;2.50;2.15;;;;;;;16.69;52.84;99637.13;5033878;28;20325;-35
2023/12/13 04:40:18;;;;;;;3.75;2.42;;;;;;;16.70;52.93;99636.09;5029909;28;20041;-35
2023/12/13 04:42:45;;;;;;;2.40;2.15;;;;;;;16.69;53.06;99632.59;5033038;28;20053;-35
2023/12/13 04:45:11;;;;;;;2.88;2.15;;;;;;;16.69;53.03;99637.97;5026457;28;20046;-35
2023/12/13 04:47:38;;;;;;;3.25;2.30;;;;;;;16.68;53.42;99630.94;5026479;28;20361;-35
2023/12/13 04:50:06;;;;;;;2.70;1.95;;;;;;;16.68;52.76;99633.63;5027742;28;20088;-37
2023/12/13 04:52:33;;;;;;;3.15;2.10;;;;;;;16.69;52.45;99637.13;5032406;28;20049;-35
2023/12/13 04:54:59;;;;;;;3.60;2.42;;;;;;;16.68;53.08;99630.94;5034845;28;20053;-35
2023/12/13 04:57:26;;;;;;;3.20;2.17;;;;;;;16.69;52.83;99637.13;5030896;28;20061;-37
2023/12/13 04:59:53;;;;;;;3.25;2.10;;;;;;;16.69;53.33;99639.81;5027965;28;20057;-36
2023/12/13 05:02:20;;;;;;;3.25;2.15;;;;;;;16.67;52.55;99634.59;5029053;28;21399;-35
2023/12/13 05:04:47;;;;;;;3.15;2.28;;;;;;;16.68;52.65;99635.44;5032413;28;20052;-36
2023/12/13 05:07:13;;;;;;;2.70;2.20;;;;;;;16.69;53.20;99637.13;5031392;28;20645;-35
2023/12/13 05:09:40;;;;;;;3.13;2.10;;;;;;;16.68;53.09;99630.09;5019745;28;20052;-35
2023/12/13 05:12:07;;;;;;;4.93;2.25;;;;;;;16.68;53.14;99635.44;5030885;28;20092;-35
2023/12/13 05:14:33;;;;;;;2.83;2.20;;;;;;;16.67;52.64;99631.94;5028573;28;20148;-35
2023/12/13 05:17:00;;;;;;;3.63;2.05;;;;;;;16.67;53.23;99633.78;5023076;28;20542;-35
2023/12/13 05:19:27;;;;;;;2.83;2.17;;;;;;;16.66;52.45;99632.13;5024103;28;20050;-35
2023/12/13 05:21:53;;;;;;;2.55;1.77;;;;;;;16.66;52.44;99632.94;5026676;28;20412;-35
2023/12/13 05:24:20;;;;;;;2.28;2.00;;;;;;;16.66;53.13;99632.13;5026990;28;20386;-36
2023/12/13 05:26:46;;;;;;;2.33;1.90;;;;;;;16.65;53.35;99625.94;5026859;28;20053;-36
2023/12/13 05:29:13;;;;;;;2.75;1.77;;;;;;;16.64;52.88;99628.78;5026242;28;20053;-35
2023/12/13 05:31:39;;;;;;;3.03;1.88;;;;;;;16.64;52.69;99629.59;5029499;28;20049;-35
2023/12/13 05:34:06;;;;;;;3.17;1.83;;;;;;;16.65;52.50;99627.78;5028376;28;20049;-35
2023/12/13 05:36:33;;;;;;;3.30;2.10;;;;;;;16.65;53.00;99633.13;5024248;28;20046;-36
2023/12/13 05:38:59;;;;;;;4.53;2.38;;;;;;;16.63;52.93;99624.44;5025904;28;20408;-35
2023/12/13 05:41:26;;;;;;;4.03;2.45;;;;;;;16.63;52.61;99627.09;5026552;28;20498;-35
2023/12/13 05:43:52;;;;;;;3.53;2.45;;;;;;;16.62;52.25;99623.59;5024105;28;20361;-36
2023/12/13 05:46:19;;;;;;;2.70;1.80;;;;;;;16.63;52.30;99629.78;5027231;28;20551;-35
2023/12/13 05:48:46;;;;;;;2.88;1.67;;;;;;;16.63;53.07;99629.78;5022893;28;20048;-35
2023/12/13 05:51:12;;;;;;;3.10;2.10;;;;;;;16.62;53.13;99628.94;5025312;28;20137;-36
2023/12/13 05:53:39;;;;;;;3.45;1.85;;;;;;;16.63;52.59;99632.47;5025259;28;20057;-35
2023/12/13 05:56:06;;;;;;;3.90;2.28;;;;;;;16.62;53.42;99636.97;5031583;28;20049;-35
2023/12/13 05:58:33;;;;;;;2.78;1.95;;;;;;;16.61;53.47;99638.00;5021353;28;20088;-34
2023/12/13 06:00:59;;;;;;;2.35;2.00;;;;;;;16.61;52.94;99632.66;5024134;28;20037;-37
2023/12/13 06:03:27;;;;;;;3.58;2.35;;;;;;;16.61;52.82;99635.31;5027616;28;20050;-36
2023/12/13 06:05:54;;;;;;;2.17;1.98;;;;;;;16.61;52.73;99632.66;5027090;28;20128;-34
2023/12/13 06:08:21;;;;;;;2.35;2.00;;;;;;;16.60;52.65;99640.81;5031697;28;20210;-35
2023/12/13 06:10:48;;;;;;;3.03;2.03;;;;;;;16.61;53.05;99639.84;5029948;28;20393;-35
2023/12/13 06:13:17;;;;;;;2.90;1.88;;;;;;;16.61;53.14;99631.81;5027859;28;20049;-35
2023/12/13 06:15:44;;;;;;;2.95;1.88;;;;;;;16.61;52.64;99637.16;5028683;28;20434;-34
2023/12/13 06:18:10;;;;;;;4.72;2.30;;;;;;;16.61;52.78;99634.50;5030989;28;20061;-35
2023/12/13 06:20:37;;;;;;;3.53;1.92;;;;;;;16.60;52.35;99635.47;5025617;28;20364;-35
2023/12/13 06:23:04;;;;;;;2.35;1.80;;;;;;;16.60;53.19;99632.81;5024798;28;20049;-35
2023/12/13 06:25:30;;;;;;;4.07;1.90;;;;;;;16.60;52.15;99638.16;5026433;28;20049;-35
2023/12/13 06:27:57;;;;;;;2.58;1.75;;;;;;;16.61;52.62;99639.84;5023557;28;20349;-36
2023/12/13 06:30:24;;;;;;;3.97;2.47;;;;;;;16.60;52.92;99644.31;5028098;28;20099;-37
2023/12/13 06:32:51;;;;;;;4.13;1.65;;;;;;;16.61;53.42;99637.16;5029004;28;20052;-34
2023/12/13 06:35:17;;;;;;;2.95;1.58;;;;;;;16.61;53.18;99640.66;5029315;28;20050;-35
2023/12/13 06:37:44;;;;;;;2.88;1.98;;;;;;;16.61;52.87;99629.13;5028563;28;20041;-35
2023/12/13 06:40:14;;;;;;;3.35;1.70;;;;;;;16.62;52.98;99636.16;5033766;28;20140;-35
2023/12/13 06:42:44;;;;;;;3.65;1.73;;;;;;;16.67;53.34;99634.59;5036808;28;20405;-35
2023/12/13 06:45:10;;;;;;;2.40;1.80;;;;;;;16.78;52.65;99641.47;5024504;28;20046;-34
2023/12/13 06:47:37;;;;;;;3.30;1.70;;;;;;;16.88;52.30;99643.91;5022807;28;20059;-35
2023/12/13 06:50:05;;;;;;;2.22;1.88;;;;;;;16.99;52.08;99643.50;5021585;28;20053;-36
2023/12/13 06:52:32;;;;;;;3.08;2.03;;;;;;;17.08;52.51;99653.16;5020836;28;20107;-35
2023/12/13 06:54:58;;;;;;;2.45;1.50;;;;;;;17.18;51.59;99655.63;5024390;28;20526;-36
2023/12/13 06:57:25;;;;;;;2.65;1.63;;;;;;;17.25;51.40;99649.38;5029112;28;20054;-35
2023/12/13 06:59:52;;;;;;;2.92;1.70;;;;;;;17.34;51.65;99650.16;5026826;28;20289;-36
2023/12/13 07:02:19;;;;;;;2.53;1.80;;;;;;;17.41;51.43;99645.75;5027985;28;20614;-34
2023/12/13 07:04:45;;;;;;;2.35;1.67;;;;;;;17.47;51.69;99650.38;5029083;28;20049;-34
2023/12/13 07:07:15;;;;;;;3.55;2.30;;;;;;;17.53;51.11;99654.22;5030224;28;20053;-38
2023/12/13 07:09:44;;;;;;;4.15;1.83;;;;;;;17.57;51.34;99651.97;5035679;28;20057;-35
2023/12/13 07:12:11;;;;;;;4.20;2.17;;;;;;;17.59;51.15;99656.16;5031041;28;20108;-34
2023/12/13 07:14:37;;;;;;;3.33;2.00;;;;;;;17.63;51.04;99651.28;5024257;28;20676;-35
2023/12/13 07:17:04;;;;;;;2.75;1.90;;;;;;;17.65;51.13;99657.31;5028761;28;20136;-35
2023/12/13 07:19:30;;;;;;;3.72;1.98;;;;;;;17.66;51.10;99657.13;5019081;28;20049;-35
2023/12/13 07:21:58;;;;;;;3.95;1.73;;;;;;;17.66;50.75;99662.47;5025310;28;20533;-35
2023/12/13 07:24:25;;;;;;;4.03;2.00;;;;;;;17.66;50.83;99664.31;5020828;28;20366;-35
2023/12/13 07:26:51;;;;;;;2.60;1.70;;;;;;;17.66;50.88;99667.00;5026183;28;20434;-35
2023/12/13 07:29:19;;;;;;;3.20;1.60;;;;;;;17.65;50.67;99665.34;5022782;28;20045;-34
2023/12/13 07:31:46;;;;;;;3.90;2.30;;;;;;;17.63;50.85;99668.19;5026698;28;20118;-35
2023/12/13 07:34:13;;;;;;;3.80;1.92;;;;;;;17.63;50.88;99668.19;5027348;28;20055;-36
2023/12/13 07:36:45;;;;;;;3.45;1.70;;;;;;;17.60;51.02;99668.53;5025443;28;20053;-34
2023/12/13 07:39:12;;;;;;;3.33;2.33;;;;;;;17.59;51.01;99677.59;5027187;28;20132;-34
2023/12/13 07:41:39;;;;;;;3.63;2.05;;;;;;;17.58;50.96;99670.56;5027097;28;20055;-35
2023/12/13 07:44:06;;;;;;;2.97;1.70;;;;;;;17.57;51.19;99676.09;5029981;28;20444;-34
2023/12/13 07:46:33;;;;;;;2.80;1.88;;;;;;;17.56;50.87;99675.25;5030688;28;20077;-35
2023/12/13 07:49:03;;;;;;;2.80;1.80;;;;;;;17.55;51.11;99681.63;5024387;28;20057;-34
2023/12/13 07:51:31;;;;;;;3.20;1.80;;;;;;;17.54;50.97;99679.97;5028044;28;20160;-35
2023/12/13 07:54:01;;;;;;;2.30;1.80;;;;;;;17.54;51.16;99674.63;5023465;28;20457;-35
2023/12/13 07:56:28;;;;;;;3.50;2.17;;;;;;;17.52;51.04;99677.47;5027698;28;20052;-36
2023/12/13 07:58:57;;;;;;;3.10;1.83;;;;;;;17.53;50.96;99689.03;5027134;28;20436;-35
2023/12/13 08:01:26;;;;;;;3.25;2.00;;;;;;;17.52;50.96;99688.19;5019273;28;20077;-35
2023/12/13 08:03:53;;;;;;;4.13;2.20;;;;;;;17.52;51.49;99687.34;5021282;28;20072;-35
2023/12/13 08:06:20;;;;;;;3.17;1.88;;;;;;;17.52;51.29;99687.34;5027767;28;20057;-35
2023/12/13 08:08:47;;;;;;;4.43;2.17;;;;;;;17.52;50.99;99690.03;5028474;28;20057;-36
2023/12/13 08:11:15;;;;;;;3.30;2.05;;;;;;;17.52;51.29;99693.53;5027555;28;20424;-34
2023/12/13 08:13:42;;;;;;;2.63;1.90;;;;;;;17.52;51.06;99695.38;5028090;28;20136;-35
2023/12/13 08:16:09;;;;;;;2.42;1.75;;;;;;;17.51;51.01;99691.88;5018160;28;20049;-34
2023/12/13 08:18:37;;;;;;;2.78;2.00;;;;;;;17.52;51.11;99692.72;5024527;28;20054;-36
2023/12/13 08:21:06;;;;;;;2.70;1.80;;;;;;;17.51;51.12;99693.72;5031031;28;20061;-35
2023/12/13 08:23:33;;;;;;;4.47;2.28;;;;;;;17.51;50.95;99701.75;5023625;28;20049;-35
2023/12/13 08:26:00;;;;;;;3.60;2.15;;;;;;;17.50;51.39;99695.56;5020830;28;20053;-35
2023/12/13 08:28:27;;;;;;;2.95;2.10;;;;;;;17.51;51.01;99707.13;5021660;28;20046;-34
2023/12/13 08:30:53;;;;;;;3.60;2.38;;;;;;;17.49;51.52;99701.94;5019792;28;20446;-36
2023/12/13 08:33:29;;;;;;;4.90;2.38;;;;;;;17.49;50.87;99706.47;5022699;28;20397;-35
2023/12/13 08:35:55;;;;;;;2.75;1.83;;;;;;;17.49;51.14;99701.13;5025868;28;20418;-35
2023/12/13 08:38:23;;;;;;;3.33;1.88;;;;;;;17.48;50.98;99710.97;5025776;28;20053;-34
2023/12/13 08:40:50;;;;;;;4.93;2.30;;;;;;;17.48;51.15;99715.50;5023977;28;20049;-35
2023/12/13 08:43:16;;;;;;;3.47;2.15;;;;;;;17.46;51.11;99713.00;5029959;28;20128;-35
2023/12/13 08:45:43;;;;;;;3.83;2.00;;;;;;;17.44;50.90;99709.66;5029041;28;20452;-35
2023/12/13 08:48:10;;;;;;;3.15;2.17;;;;;;;17.40;51.04;99708.34;5024363;28;20057;-36
2023/12/13 08:50:36;;;;;;;3.97;1.92;;;;;;;17.36;50.93;99714.25;5020665;28;20112;-34
2023/12/13 08:53:03;;;;;;;3.05;2.03;;;;;;;17.32;51.25;99710.25;5024941;28;20057;-35
2023/12/13 08:55:30;;;;;;;4.35;1.80;;;;;;;17.27;50.94;99710.78;5038627;28;20100;-37
2023/12/13 08:57:56;;;;;;;3.33;1.98;;;;;;;17.22;50.94;99714.00;5025842;28;20061;-34
2023/12/13 09:00:23;;;;;;;4.60;2.10;;;;;;;17.18;52.07;99712.69;5022198;28;20130;-35
2023/12/13 09:02:50;;;;;;;2.63;1.80;;;;;;;17.14;51.59;99716.72;5023726;28;20076;-34
2023/12/13 09:05:16;;;;;;;6.90;2.30;;;;;;;17.10;51.92;99718.09;5025874;28;20120;-36
2023/12/13 09:07:43;;;;;;;4.82;2.55;;;;;;;17.08;52.02;99716.56;5024845;28;20085;-34
2023/12/13 09:10:11;;;;;;;5.00;2.40;;;;;;;17.03;52.40;99720.63;5028373;28;20136;-35
2023/12/13 09:12:38;;;;;;;4.80;2.22;;;;;;;17.01;52.10;99728.00;5026794;28;20045;-34
2023/12/13 09:15:07;;;;;;;5.32;2.70;;;;;;;16.98;52.36;99728.34;5018976;28;20429;-36
2023/12/13 09:17:35;;;;;;;4.10;2.40;;;;;;;16.96;51.89;99730.34;5024860;28;20085;-34
2023/12/13 09:20:02;;;;;;;3.65;2.15;;;;;;;16.94;52.70;99735.03;5023932;28;20057;-34
2023/12/13 09:22:30;;;;;;;4.07;2.45;;;;;;;16.93;52.49;99740.59;5025769;28;20045;-35
2023/12/13 09:24:56;;;;;;;3.75;2.13;;;;;;;16.93;52.46;99745.94;5025020;28;20049;-35
2023/12/13 09:27:23;;;;;;;4.32;2.85;;;;;;;16.94;51.94;99736.91;5022590;28;20088;-36
2023/12/13 09:29:50;;;;;;;3.90;2.17;;;;;;;16.95;52.08;99741.22;5022283;28;20085;-35
2023/12/13 09:32:16;;;;;;;3.38;2.00;;;;;;;16.97;52.63;99745.41;5020736;28;20078;-35
2023/12/13 09:34:43;;;;;;;5.50;2.28;;;;;;;16.98;52.38;99749.75;5024006;28;20053;-34
2023/12/13 09:37:09;;;;;;;7.63;3.17;;;;;;;17.00;52.55;99755.78;5023737;28;20050;-34
2023/12/13 09:39:36;;;;;;;4.10;2.45;;;;;;;17.00;52.73;99753.09;5020744;28;20072;-34
2023/12/13 09:42:04;;;;;;;4.63;2.35;;;;;;;17.03;52.61;99759.94;5026817;28;20049;-35
2023/12/13 09:44:33;;;;;;;6.47;2.60;;;;;;;17.03;52.77;99757.25;5026552;28;20348;-35
2023/12/13 09:47:02;;;;;;;5.53;2.35;;;;;;;17.04;52.58;99758.91;5027726;28;20057;-35
2023/12/13 09:49:30;;;;;;;8.23;2.88;;;;;;;17.04;52.45;99766.94;5027717;28;20130;-36
2023/12/13 09:52:09;;;;;;;4.97;2.72;;;;;;;17.06;53.21;99766.78;5030217;28;20421;-35
2023/12/13 09:54:41;;;;;;;8.55;2.80;;;;;;;17.05;52.63;99771.31;5019495;28;20060;-34
2023/12/13 09:57:07;;;;;;;5.10;2.75;;;;;;;17.05;52.60;99768.66;5026629;28;20049;-36
2023/12/13 09:59:36;;;;;;;10.50;3.20;;;;;;;17.04;53.06;99764.28;5028226;28;20084;-34
2023/12/13 10:02:10;;;;;;;5.75;2.72;;;;;;;17.03;53.44;99767.97;5024179;28;20405;-35
2023/12/13 10:04:38;;;;;;;4.38;2.58;;;;;;;17.03;53.34;99767.97;5025036;28;20049;-34
2023/12/13 10:07:08;;;;;;;6.05;2.28;;;;;;;17.03;53.38;99766.13;5023493;28;20132;-35
2023/12/13 10:09:35;;;;;;;6.60;3.13;;;;;;;17.04;53.19;99777.66;5026513;28;20279;-36
2023/12/13 10:12:04;;;;;;;6.35;2.63;;;;;;;17.03;53.02;99781.34;5031473;28;20045;-35
2023/12/13 10:14:33;;;;;;;9.35;2.53;;;;;;;17.03;53.34;99781.34;5026050;28;20052;-34
2023/12/13 10:17:01;;;;;;;7.57;2.65;;;;;;;17.02;53.33;99782.38;5025908;28;20049;-34
2023/12/13 10:19:43;;;;;;;5.05;2.53;;;;;;;17.03;53.26;99792.06;5027620;28;20057;-34
2023/12/13 10:22:09;;;;;;;5.13;2.53;;;;;;;17.03;53.46;99792.88;5029490;28;20703;-34
2023/12/13 10:24:36;;;;;;;6.05;3.03;;;;;;;17.03;53.41;99798.25;5031458;28;20354;-37
2023/12/13 10:27:03;;;;;;;5.63;2.78;;;;;;;17.05;53.17;99799.94;5025675;28;20049;-36
2023/12/13 10:29:30;;;;;;;4.63;2.40;;;;;;;17.04;53.03;99804.44;5026973;28;20096;-37
2023/12/13 10:31:58;;;;;;;4.43;2.38;;;;;;;17.03;52.94;99795.56;5025585;28;20042;-34
2023/12/13 10:34:25;;;;;;;4.63;2.47;;;;;;;17.03;52.92;99800.91;5025491;28;20062;-36
2023/12/13 10:36:54;;;;;;;3.53;2.28;;;;;;;17.04;53.19;99801.75;5027264;28;20068;-34
2023/12/13 10:39:24;;;;;;;4.72;2.70;;;;;;;17.04;52.93;99801.75;5024454;28;20071;-34
2023/12/13 10:41:56;;;;;;;4.95;2.50;;;;;;;17.03;53.23;99800.09;5025610;28;20662;-33
2023/12/13 10:44:23;;;;;;;6.50;2.70;;;;;;;17.05;52.97;99802.63;5024934;28;20057;-35
2023/12/13 10:46:58;;;;;;;4.47;2.20;;;;;;;17.02;52.98;99798.44;5026278;28;20487;-34
2023/12/13 10:49:26;;;;;;;6.40;2.65;;;;;;;17.03;52.76;99797.41;5028556;28;20056;-35
2023/12/13 10:51:53;;;;;;;4.30;2.42;;;;;;;17.03;52.70;99800.09;5029156;28;20045;-34
2023/12/13 10:54:21;;;;;;;4.07;2.80;;;;;;;17.02;52.86;99809.13;5027435;28;20155;-34
2023/12/13 10:56:48;;;;;;;4.35;2.42;;;;;;;17.03;52.75;99808.13;5028458;28;20049;-35
2023/12/13 10:59:16;;;;;;;5.95;2.63;;;;;;;17.02;52.65;99812.66;5024281;28;20045;-35
2023/12/13 11:01:45;;;;;;;3.65;2.30;;;;;;;17.03;52.89;99813.47;5024575;28;20437;-35
2023/12/13 11:04:13;;;;;;;4.60;3.05;;;;;;;17.02;52.94;99818.00;5022088;28;20049;-34
2023/12/13 11:06:45;;;;;;;4.18;2.65;;;;;;;17.02;52.77;99811.81;5022245;28;20049;-34
2023/12/13 11:09:13;;;;;;;4.75;2.45;;;;;;;17.02;53.39;99819.84;5024121;28;20069;-34
2023/12/13 11:11:42;;;;;;;6.22;2.85;;;;;;;17.01;52.95;99816.34;5026613;28;20050;-36
2023/12/13 11:14:10;;;;;;;4.03;2.72;;;;;;;17.01;53.46;99818.19;5028690;28;20073;-36
2023/12/13 11:16:42;;;;;;;7.47;2.78;;;;;;;17.01;53.31;99815.50;5022832;28;20057;-34
2023/12/13 11:19:15;;;;;;;5.43;2.95;;;;;;;17.02;52.80;99814.50;5019911;28;20041;-34
2023/12/13 11:21:45;;;;;;;4.30;2.35;;;;;;;17.02;53.54;99822.53;5025574;28;20083;-34
2023/12/13 11:24:15;;;;;;;4.75;2.72;;;;;;;17.02;53.18;99822.53;5024801;28;20049;-35
2023/12/13 11:26:48;;;;;;;4.30;2.63;;;;;;;17.03;52.66;99821.50;5028941;28;20149;-35
2023/12/13 11:29:29;;;;;;;4.75;2.50;;;;;;;17.04;53.78;99823.16;5044578;28;20065;-34
2023/12/13 11:31:58;;;;;;;6.13;2.70;;;;;;;17.07;53.12;99824.69;5021397;28;20129;-35
2023/12/13 11:34:47;;;;;;;6.97;2.70;;;;;;;17.09;53.10;99836.06;5028259;28;20136;-36